sensor_id;sensor_type;location;lat;lon;timestamp;P1;durP1;ratioP1;P2;durP2;ratioP2
5955;SDS011;3004;48.080;11.600;2022-12-05T00:01:48;68.83;;;10.50;;
5955;SDS011;3004;48.080;11.600;2022-12-05T00:04:17;67.43;;;7.90;;
5955;SDS011;3004;48.080;11.600;2022-12-05T00:06:49;66.50;;;7.73;;
5955;SDS011;3004;48.080;11.600;2022-12-05T00:09:17;67.30;;;8.40;;
5955;SDS011;3004;48.080;11.600;2022-12-05T00:11:47;66.63;;;7.77;;
5955;SDS011;3004;48.080;11.600;2022-12-05T00:14:17;66.87;;;7.67;;
5955;SDS011;3004;48.080;11.600;2022-12-05T00:16:44;67.60;;;9.00;;
5955;SDS011;3004;48.080;11.600;2022-12-05T00:19:11;66.70;;;7.90;;
5955;SDS011;3004;48.080;11.600;2022-12-05T00:21:40;66.67;;;7.93;;
5955;SDS011;3004;48.080;11.600;2022-12-05T00:24:09;66.70;;;8.03;;
5955;SDS011;3004;48.080;11.600;2022-12-05T00:26:39;67.57;;;9.00;;
5955;SDS011;3004;48.080;11.600;2022-12-05T00:29:07;67.17;;;8.10;;
5955;SDS011;3004;48.080;11.600;2022-12-05T00:31:37;66.83;;;8.07;;
5955;SDS011;3004;48.080;11.600;2022-12-05T00:34:05;66.83;;;8.07;;
5955;SDS011;3004;48.080;11.600;2022-12-05T00:36:36;66.67;;;8.13;;
5955;SDS011;3004;48.080;11.600;2022-12-05T00:39:06;67.03;;;8.13;;
5955;SDS011;3004;48.080;11.600;2022-12-05T00:41:34;67.13;;;8.17;;
5955;SDS011;3004;48.080;11.600;2022-12-05T00:44:07;67.47;;;8.30;;
5955;SDS011;3004;48.080;11.600;2022-12-05T00:46:36;66.93;;;8.03;;
5955;SDS011;3004;48.080;11.600;2022-12-05T00:49:15;67.87;;;8.90;;
5955;SDS011;3004;48.080;11.600;2022-12-05T00:51:45;68.20;;;8.73;;
5955;SDS011;3004;48.080;11.600;2022-12-05T00:54:18;66.97;;;7.87;;
5955;SDS011;3004;48.080;11.600;2022-12-05T00:56:47;67.00;;;8.03;;
5955;SDS011;3004;48.080;11.600;2022-12-05T00:59:18;67.17;;;7.93;;
5955;SDS011;3004;48.080;11.600;2022-12-05T01:01:46;73.40;;;9.57;;
5955;SDS011;3004;48.080;11.600;2022-12-05T01:04:16;67.90;;;8.93;;
5955;SDS011;3004;48.080;11.600;2022-12-05T01:06:44;67.30;;;8.00;;
5955;SDS011;3004;48.080;11.600;2022-12-05T01:09:13;66.97;;;7.63;;
5955;SDS011;3004;48.080;11.600;2022-12-05T01:11:42;66.80;;;7.73;;
5955;SDS011;3004;48.080;11.600;2022-12-05T01:14:13;68.20;;;8.27;;
5955;SDS011;3004;48.080;11.600;2022-12-05T01:16:44;67.23;;;8.00;;
5955;SDS011;3004;48.080;11.600;2022-12-05T01:19:12;66.80;;;7.60;;
5955;SDS011;3004;48.080;11.600;2022-12-05T01:21:41;66.93;;;7.80;;
5955;SDS011;3004;48.080;11.600;2022-12-05T01:24:08;66.80;;;7.77;;
5955;SDS011;3004;48.080;11.600;2022-12-05T01:26:38;67.07;;;7.73;;
5955;SDS011;3004;48.080;11.600;2022-12-05T01:29:09;67.17;;;7.70;;
5955;SDS011;3004;48.080;11.600;2022-12-05T01:31:40;66.77;;;7.80;;
5955;SDS011;3004;48.080;11.600;2022-12-05T01:34:14;67.37;;;8.00;;
5955;SDS011;3004;48.080;11.600;2022-12-05T01:36:42;71.13;;;8.10;;
5955;SDS011;3004;48.080;11.600;2022-12-05T01:39:12;67.13;;;7.60;;
5955;SDS011;3004;48.080;11.600;2022-12-05T01:41:43;66.93;;;7.63;;
5955;SDS011;3004;48.080;11.600;2022-12-05T01:47:17;67.53;;;8.73;;
5955;SDS011;3004;48.080;11.600;2022-12-05T01:49:48;67.00;;;7.67;;
5955;SDS011;3004;48.080;11.600;2022-12-05T01:52:19;68.30;;;9.17;;
5955;SDS011;3004;48.080;11.600;2022-12-05T01:54:50;66.80;;;7.57;;
5955;SDS011;3004;48.080;11.600;2022-12-05T01:57:34;67.07;;;7.53;;
5955;SDS011;3004;48.080;11.600;2022-12-05T02:00:07;68.97;;;8.30;;
5955;SDS011;3004;48.080;11.600;2022-12-05T02:02:35;66.87;;;7.87;;
5955;SDS011;3004;48.080;11.600;2022-12-05T02:05:06;71.00;;;11.13;;
5955;SDS011;3004;48.080;11.600;2022-12-05T02:07:39;67.10;;;7.93;;
5955;SDS011;3004;48.080;11.600;2022-12-05T02:10:09;67.23;;;7.87;;
5955;SDS011;3004;48.080;11.600;2022-12-05T02:12:39;67.43;;;8.30;;
5955;SDS011;3004;48.080;11.600;2022-12-05T02:15:13;67.57;;;8.97;;
5955;SDS011;3004;48.080;11.600;2022-12-05T02:17:50;69.70;;;11.60;;
5955;SDS011;3004;48.080;11.600;2022-12-05T02:23:24;68.00;;;9.07;;
5955;SDS011;3004;48.080;11.600;2022-12-05T02:29:25;66.80;;;8.00;;
5955;SDS011;3004;48.080;11.600;2022-12-05T02:32:19;67.17;;;8.00;;
5955;SDS011;3004;48.080;11.600;2022-12-05T02:35:23;67.37;;;8.10;;
5955;SDS011;3004;48.080;11.600;2022-12-05T02:38:01;67.10;;;7.93;;
5955;SDS011;3004;48.080;11.600;2022-12-05T02:40:39;67.67;;;8.63;;
5955;SDS011;3004;48.080;11.600;2022-12-05T02:43:15;67.13;;;8.07;;
5955;SDS011;3004;48.080;11.600;2022-12-05T02:45:49;67.17;;;7.97;;
5955;SDS011;3004;48.080;11.600;2022-12-05T02:48:24;67.63;;;8.50;;
5955;SDS011;3004;48.080;11.600;2022-12-05T02:50:54;66.90;;;7.97;;
5955;SDS011;3004;48.080;11.600;2022-12-05T02:53:27;67.20;;;8.00;;
5955;SDS011;3004;48.080;11.600;2022-12-05T02:55:56;67.50;;;8.20;;
5955;SDS011;3004;48.080;11.600;2022-12-05T02:58:25;67.37;;;8.00;;
5955;SDS011;3004;48.080;11.600;2022-12-05T03:00:59;67.20;;;8.00;;
5955;SDS011;3004;48.080;11.600;2022-12-05T03:03:29;66.77;;;7.90;;
5955;SDS011;3004;48.080;11.600;2022-12-05T03:05:59;67.47;;;9.03;;
5955;SDS011;3004;48.080;11.600;2022-12-05T03:08:33;67.30;;;8.07;;
5955;SDS011;3004;48.080;11.600;2022-12-05T03:11:05;66.93;;;7.90;;
5955;SDS011;3004;48.080;11.600;2022-12-05T03:13:34;67.27;;;7.93;;
5955;SDS011;3004;48.080;11.600;2022-12-05T03:16:09;67.00;;;8.00;;
5955;SDS011;3004;48.080;11.600;2022-12-05T03:18:44;67.03;;;8.30;;
5955;SDS011;3004;48.080;11.600;2022-12-05T03:21:18;67.20;;;8.43;;
5955;SDS011;3004;48.080;11.600;2022-12-05T03:23:52;70.67;;;9.17;;
5955;SDS011;3004;48.080;11.600;2022-12-05T03:26:28;67.03;;;8.10;;
5955;SDS011;3004;48.080;11.600;2022-12-05T03:29:05;67.17;;;8.10;;
5955;SDS011;3004;48.080;11.600;2022-12-05T03:31:48;68.20;;;8.83;;
5955;SDS011;3004;48.080;11.600;2022-12-05T03:34:25;67.07;;;8.10;;
5955;SDS011;3004;48.080;11.600;2022-12-05T03:37:04;67.03;;;8.17;;
5955;SDS011;3004;48.080;11.600;2022-12-05T03:39:38;67.23;;;7.97;;
5955;SDS011;3004;48.080;11.600;2022-12-05T03:42:13;67.03;;;8.23;;
5955;SDS011;3004;48.080;11.600;2022-12-05T03:44:49;67.20;;;8.10;;
5955;SDS011;3004;48.080;11.600;2022-12-05T03:47:20;67.07;;;8.00;;
5955;SDS011;3004;48.080;11.600;2022-12-05T03:49:57;67.30;;;8.50;;
5955;SDS011;3004;48.080;11.600;2022-12-05T03:52:29;66.97;;;8.07;;
5955;SDS011;3004;48.080;11.600;2022-12-05T03:55:02;67.87;;;9.10;;
5955;SDS011;3004;48.080;11.600;2022-12-05T03:57:33;67.00;;;8.00;;
5955;SDS011;3004;48.080;11.600;2022-12-05T04:00:08;67.47;;;8.80;;
5955;SDS011;3004;48.080;11.600;2022-12-05T04:02:40;67.37;;;8.20;;
5955;SDS011;3004;48.080;11.600;2022-12-05T04:05:16;67.23;;;8.00;;
5955;SDS011;3004;48.080;11.600;2022-12-05T04:07:47;69.10;;;10.40;;
5955;SDS011;3004;48.080;11.600;2022-12-05T04:10:18;67.90;;;8.30;;
5955;SDS011;3004;48.080;11.600;2022-12-05T04:12:53;67.27;;;8.20;;
5955;SDS011;3004;48.080;11.600;2022-12-05T04:15:23;67.67;;;8.60;;
5955;SDS011;3004;48.080;11.600;2022-12-05T04:18:13;67.50;;;8.90;;
5955;SDS011;3004;48.080;11.600;2022-12-05T04:20:45;67.00;;;7.77;;
5955;SDS011;3004;48.080;11.600;2022-12-05T04:23:36;67.47;;;8.30;;
5955;SDS011;3004;48.080;11.600;2022-12-05T04:26:05;68.00;;;9.40;;
5955;SDS011;3004;48.080;11.600;2022-12-05T04:28:43;66.97;;;8.00;;
5955;SDS011;3004;48.080;11.600;2022-12-05T04:31:16;67.67;;;8.60;;
5955;SDS011;3004;48.080;11.600;2022-12-05T04:33:50;67.17;;;8.20;;
5955;SDS011;3004;48.080;11.600;2022-12-05T04:36:27;67.57;;;8.50;;
5955;SDS011;3004;48.080;11.600;2022-12-05T04:39:13;67.07;;;8.00;;
5955;SDS011;3004;48.080;11.600;2022-12-05T04:41:46;67.17;;;8.20;;
5955;SDS011;3004;48.080;11.600;2022-12-05T04:44:17;67.40;;;8.30;;
5955;SDS011;3004;48.080;11.600;2022-12-05T04:46:48;67.43;;;8.20;;
5955;SDS011;3004;48.080;11.600;2022-12-05T04:49:19;67.00;;;8.07;;
5955;SDS011;3004;48.080;11.600;2022-12-05T04:51:52;67.90;;;8.90;;
5955;SDS011;3004;48.080;11.600;2022-12-05T04:54:29;66.90;;;7.90;;
5955;SDS011;3004;48.080;11.600;2022-12-05T04:57:04;67.57;;;8.20;;
5955;SDS011;3004;48.080;11.600;2022-12-05T04:59:40;67.17;;;7.90;;
5955;SDS011;3004;48.080;11.600;2022-12-05T05:02:19;68.03;;;8.53;;
5955;SDS011;3004;48.080;11.600;2022-12-05T05:04:56;67.00;;;7.87;;
5955;SDS011;3004;48.080;11.600;2022-12-05T05:07:33;67.07;;;7.77;;
5955;SDS011;3004;48.080;11.600;2022-12-05T05:10:12;66.87;;;7.70;;
5955;SDS011;3004;48.080;11.600;2022-12-05T05:12:43;67.00;;;7.93;;
5955;SDS011;3004;48.080;11.600;2022-12-05T05:15:12;68.07;;;8.97;;
5955;SDS011;3004;48.080;11.600;2022-12-05T05:17:44;67.03;;;8.00;;
5955;SDS011;3004;48.080;11.600;2022-12-05T05:20:11;68.27;;;10.00;;
5955;SDS011;3004;48.080;11.600;2022-12-05T05:22:53;66.73;;;8.23;;
5955;SDS011;3004;48.080;11.600;2022-12-05T05:25:23;66.47;;;8.17;;
5955;SDS011;3004;48.080;11.600;2022-12-05T05:27:54;66.70;;;8.27;;
5955;SDS011;3004;48.080;11.600;2022-12-05T05:30:33;66.60;;;8.53;;
5955;SDS011;3004;48.080;11.600;2022-12-05T05:33:02;67.40;;;9.00;;
5955;SDS011;3004;48.080;11.600;2022-12-05T05:35:39;66.57;;;8.33;;
5955;SDS011;3004;48.080;11.600;2022-12-05T05:38:19;66.83;;;8.30;;
5955;SDS011;3004;48.080;11.600;2022-12-05T05:40:49;68.10;;;8.47;;
5955;SDS011;3004;48.080;11.600;2022-12-05T05:43:25;66.87;;;8.07;;
5955;SDS011;3004;48.080;11.600;2022-12-05T05:46:06;66.77;;;8.40;;
5955;SDS011;3004;48.080;11.600;2022-12-05T05:48:33;66.73;;;8.23;;
5955;SDS011;3004;48.080;11.600;2022-12-05T05:51:01;67.30;;;8.27;;
5955;SDS011;3004;48.080;11.600;2022-12-05T05:53:37;66.77;;;8.23;;
5955;SDS011;3004;48.080;11.600;2022-12-05T05:56:06;67.13;;;8.20;;
5955;SDS011;3004;48.080;11.600;2022-12-05T05:58:37;68.20;;;9.47;;
5955;SDS011;3004;48.080;11.600;2022-12-05T06:01:08;67.27;;;7.97;;
5955;SDS011;3004;48.080;11.600;2022-12-05T06:03:39;68.00;;;8.90;;
5955;SDS011;3004;48.080;11.600;2022-12-05T06:06:09;67.40;;;8.43;;
5955;SDS011;3004;48.080;11.600;2022-12-05T06:08:40;67.43;;;7.97;;
5955;SDS011;3004;48.080;11.600;2022-12-05T06:11:09;67.20;;;8.10;;
5955;SDS011;3004;48.080;11.600;2022-12-05T06:13:40;66.90;;;7.87;;
5955;SDS011;3004;48.080;11.600;2022-12-05T06:16:12;67.10;;;8.00;;
5955;SDS011;3004;48.080;11.600;2022-12-05T06:18:43;67.07;;;7.93;;
5955;SDS011;3004;48.080;11.600;2022-12-05T06:21:13;67.20;;;7.97;;
5955;SDS011;3004;48.080;11.600;2022-12-05T06:23:53;67.13;;;8.07;;
5955;SDS011;3004;48.080;11.600;2022-12-05T06:26:22;67.33;;;8.07;;
5955;SDS011;3004;48.080;11.600;2022-12-05T06:28:50;67.07;;;8.03;;
5955;SDS011;3004;48.080;11.600;2022-12-05T06:31:23;67.27;;;8.07;;
5955;SDS011;3004;48.080;11.600;2022-12-05T06:33:58;67.00;;;8.07;;
5955;SDS011;3004;48.080;11.600;2022-12-05T06:36:26;67.67;;;8.30;;
5955;SDS011;3004;48.080;11.600;2022-12-05T06:38:55;67.00;;;7.93;;
5955;SDS011;3004;48.080;11.600;2022-12-05T06:41:24;67.30;;;7.93;;
5955;SDS011;3004;48.080;11.600;2022-12-05T06:43:51;67.20;;;7.90;;
5955;SDS011;3004;48.080;11.600;2022-12-05T06:46:23;67.43;;;7.83;;
5955;SDS011;3004;48.080;11.600;2022-12-05T06:48:54;67.67;;;8.10;;
5955;SDS011;3004;48.080;11.600;2022-12-05T06:51:24;68.30;;;9.10;;
5955;SDS011;3004;48.080;11.600;2022-12-05T06:53:51;68.77;;;9.07;;
5955;SDS011;3004;48.080;11.600;2022-12-05T06:56:24;67.47;;;7.90;;
5955;SDS011;3004;48.080;11.600;2022-12-05T06:58:54;67.17;;;7.80;;
5955;SDS011;3004;48.080;11.600;2022-12-05T07:01:22;67.53;;;7.90;;
5955;SDS011;3004;48.080;11.600;2022-12-05T07:04:03;74.83;;;8.60;;
5955;SDS011;3004;48.080;11.600;2022-12-05T07:06:32;67.23;;;7.80;;
5955;SDS011;3004;48.080;11.600;2022-12-05T07:09:01;67.20;;;7.70;;
5955;SDS011;3004;48.080;11.600;2022-12-05T07:11:30;67.27;;;8.37;;
5955;SDS011;3004;48.080;11.600;2022-12-05T07:14:01;67.40;;;7.90;;
5955;SDS011;3004;48.080;11.600;2022-12-05T07:16:33;67.60;;;8.00;;
5955;SDS011;3004;48.080;11.600;2022-12-05T07:19:08;67.63;;;8.30;;
5955;SDS011;3004;48.080;11.600;2022-12-05T07:21:35;68.60;;;8.60;;
5955;SDS011;3004;48.080;11.600;2022-12-05T07:24:03;67.63;;;7.80;;
5955;SDS011;3004;48.080;11.600;2022-12-05T07:26:35;68.13;;;8.60;;
5955;SDS011;3004;48.080;11.600;2022-12-05T07:29:02;69.10;;;9.00;;
5955;SDS011;3004;48.080;11.600;2022-12-05T07:31:33;67.93;;;8.20;;
5955;SDS011;3004;48.080;11.600;2022-12-05T07:34:01;67.50;;;7.60;;
5955;SDS011;3004;48.080;11.600;2022-12-05T07:36:28;67.87;;;8.00;;
5955;SDS011;3004;48.080;11.600;2022-12-05T07:39:01;67.37;;;8.00;;
5955;SDS011;3004;48.080;11.600;2022-12-05T07:41:32;67.00;;;7.50;;
5955;SDS011;3004;48.080;11.600;2022-12-05T07:44:12;67.73;;;7.67;;
5955;SDS011;3004;48.080;11.600;2022-12-05T07:46:39;68.50;;;9.43;;
5955;SDS011;3004;48.080;11.600;2022-12-05T07:49:09;68.00;;;8.03;;
5955;SDS011;3004;48.080;11.600;2022-12-05T07:51:39;67.50;;;7.57;;
5955;SDS011;3004;48.080;11.600;2022-12-05T07:54:06;68.40;;;9.10;;
5955;SDS011;3004;48.080;11.600;2022-12-05T07:56:33;67.63;;;8.03;;
5955;SDS011;3004;48.080;11.600;2022-12-05T07:59:00;68.30;;;8.73;;
5955;SDS011;3004;48.080;11.600;2022-12-05T08:01:46;67.47;;;7.50;;
5955;SDS011;3004;48.080;11.600;2022-12-05T08:04:17;67.57;;;7.70;;
5955;SDS011;3004;48.080;11.600;2022-12-05T08:06:47;67.77;;;8.10;;
5955;SDS011;3004;48.080;11.600;2022-12-05T08:09:14;67.57;;;7.90;;
5955;SDS011;3004;48.080;11.600;2022-12-05T08:11:48;67.10;;;7.53;;
5955;SDS011;3004;48.080;11.600;2022-12-05T08:14:16;67.20;;;7.67;;
5955;SDS011;3004;48.080;11.600;2022-12-05T08:16:55;67.47;;;7.60;;
5955;SDS011;3004;48.080;11.600;2022-12-05T08:19:42;70.10;;;9.83;;
5955;SDS011;3004;48.080;11.600;2022-12-05T08:22:15;67.63;;;7.80;;
5955;SDS011;3004;48.080;11.600;2022-12-05T08:24:45;67.30;;;7.83;;
5955;SDS011;3004;48.080;11.600;2022-12-05T08:27:14;67.73;;;8.00;;
5955;SDS011;3004;48.080;11.600;2022-12-05T08:29:46;67.67;;;7.87;;
5955;SDS011;3004;48.080;11.600;2022-12-05T08:32:13;67.57;;;7.80;;
5955;SDS011;3004;48.080;11.600;2022-12-05T08:34:44;67.57;;;7.97;;
5955;SDS011;3004;48.080;11.600;2022-12-05T08:37:14;67.57;;;7.90;;
5955;SDS011;3004;48.080;11.600;2022-12-05T08:39:41;67.60;;;7.90;;
5955;SDS011;3004;48.080;11.600;2022-12-05T08:42:08;67.47;;;8.10;;
5955;SDS011;3004;48.080;11.600;2022-12-05T08:44:36;67.37;;;8.03;;
5955;SDS011;3004;48.080;11.600;2022-12-05T08:47:05;67.50;;;8.00;;
5955;SDS011;3004;48.080;11.600;2022-12-05T08:49:32;67.77;;;7.97;;
5955;SDS011;3004;48.080;11.600;2022-12-05T08:51:59;67.67;;;8.33;;
5955;SDS011;3004;48.080;11.600;2022-12-05T08:54:26;69.20;;;8.70;;
5955;SDS011;3004;48.080;11.600;2022-12-05T08:56:58;67.37;;;8.00;;
5955;SDS011;3004;48.080;11.600;2022-12-05T08:59:27;67.83;;;8.30;;
5955;SDS011;3004;48.080;11.600;2022-12-05T09:02:30;67.67;;;8.20;;
5955;SDS011;3004;48.080;11.600;2022-12-05T09:05:00;67.37;;;8.03;;
5955;SDS011;3004;48.080;11.600;2022-12-05T09:07:36;67.57;;;8.30;;
5955;SDS011;3004;48.080;11.600;2022-12-05T09:10:03;68.50;;;9.00;;
5955;SDS011;3004;48.080;11.600;2022-12-05T09:12:37;69.00;;;9.20;;
5955;SDS011;3004;48.080;11.600;2022-12-05T09:15:07;68.70;;;8.60;;
5955;SDS011;3004;48.080;11.600;2022-12-05T09:17:38;67.67;;;8.13;;
5955;SDS011;3004;48.080;11.600;2022-12-05T09:20:07;67.57;;;7.90;;
5955;SDS011;3004;48.080;11.600;2022-12-05T09:22:37;67.50;;;8.03;;
5955;SDS011;3004;48.080;11.600;2022-12-05T09:25:05;67.53;;;8.00;;
5955;SDS011;3004;48.080;11.600;2022-12-05T09:27:33;67.87;;;8.33;;
5955;SDS011;3004;48.080;11.600;2022-12-05T09:30:16;69.57;;;8.50;;
5955;SDS011;3004;48.080;11.600;2022-12-05T09:32:59;67.73;;;7.97;;
5955;SDS011;3004;48.080;11.600;2022-12-05T09:35:29;67.73;;;8.03;;
5955;SDS011;3004;48.080;11.600;2022-12-05T09:37:58;67.73;;;7.83;;
5955;SDS011;3004;48.080;11.600;2022-12-05T09:40:31;70.60;;;8.50;;
5955;SDS011;3004;48.080;11.600;2022-12-05T09:43:01;70.00;;;8.60;;
5955;SDS011;3004;48.080;11.600;2022-12-05T09:45:45;68.10;;;8.80;;
5955;SDS011;3004;48.080;11.600;2022-12-05T09:48:32;78.00;;;10.70;;
5955;SDS011;3004;48.080;11.600;2022-12-05T09:51:06;67.60;;;7.87;;
5955;SDS011;3004;48.080;11.600;2022-12-05T09:53:36;69.10;;;9.27;;
5955;SDS011;3004;48.080;11.600;2022-12-05T09:56:11;67.77;;;7.77;;
5955;SDS011;3004;48.080;11.600;2022-12-05T09:58:46;67.87;;;8.50;;
5955;SDS011;3004;48.080;11.600;2022-12-05T10:01:30;67.93;;;7.90;;
5955;SDS011;3004;48.080;11.600;2022-12-05T10:04:18;67.67;;;7.70;;
5955;SDS011;3004;48.080;11.600;2022-12-05T10:07:00;68.93;;;9.20;;
5955;SDS011;3004;48.080;11.600;2022-12-05T10:09:44;67.50;;;7.63;;
5955;SDS011;3004;48.080;11.600;2022-12-05T10:15:13;67.50;;;7.77;;
5955;SDS011;3004;48.080;11.600;2022-12-05T10:17:51;67.57;;;7.83;;
5955;SDS011;3004;48.080;11.600;2022-12-05T10:20:28;67.67;;;8.00;;
5955;SDS011;3004;48.080;11.600;2022-12-05T10:26:08;67.97;;;8.10;;
5955;SDS011;3004;48.080;11.600;2022-12-05T10:29:06;68.33;;;8.23;;
5955;SDS011;3004;48.080;11.600;2022-12-05T10:31:40;67.87;;;7.87;;
5955;SDS011;3004;48.080;11.600;2022-12-05T10:34:14;68.27;;;8.60;;
5955;SDS011;3004;48.080;11.600;2022-12-05T10:36:52;67.90;;;8.00;;
5955;SDS011;3004;48.080;11.600;2022-12-05T10:39:23;68.17;;;8.37;;
5955;SDS011;3004;48.080;11.600;2022-12-05T10:41:53;68.23;;;8.20;;
5955;SDS011;3004;48.080;11.600;2022-12-05T10:44:20;67.90;;;8.07;;
5955;SDS011;3004;48.080;11.600;2022-12-05T10:47:10;68.23;;;8.07;;
5955;SDS011;3004;48.080;11.600;2022-12-05T10:49:42;70.03;;;8.77;;
5955;SDS011;3004;48.080;11.600;2022-12-05T10:52:12;68.47;;;8.50;;
5955;SDS011;3004;48.080;11.600;2022-12-05T10:54:41;67.77;;;8.00;;
5955;SDS011;3004;48.080;11.600;2022-12-05T10:57:19;67.83;;;8.13;;
5955;SDS011;3004;48.080;11.600;2022-12-05T10:59:50;68.03;;;8.07;;
5955;SDS011;3004;48.080;11.600;2022-12-05T11:02:20;68.03;;;8.03;;
5955;SDS011;3004;48.080;11.600;2022-12-05T11:04:50;68.00;;;8.30;;
5955;SDS011;3004;48.080;11.600;2022-12-05T11:07:37;68.90;;;8.87;;
5955;SDS011;3004;48.080;11.600;2022-12-05T11:10:20;69.00;;;9.10;;
5955;SDS011;3004;48.080;11.600;2022-12-05T11:13:15;68.20;;;8.23;;
5955;SDS011;3004;48.080;11.600;2022-12-05T11:15:55;68.37;;;8.00;;
5955;SDS011;3004;48.080;11.600;2022-12-05T11:18:27;68.37;;;7.93;;
5955;SDS011;3004;48.080;11.600;2022-12-05T11:23:51;69.70;;;8.60;;
5955;SDS011;3004;48.080;11.600;2022-12-05T11:26:31;67.90;;;7.77;;
5955;SDS011;3004;48.080;11.600;2022-12-05T11:29:00;67.70;;;7.60;;
5955;SDS011;3004;48.080;11.600;2022-12-05T11:31:29;68.20;;;7.50;;
5955;SDS011;3004;48.080;11.600;2022-12-05T11:34:00;68.17;;;8.00;;
5955;SDS011;3004;48.080;11.600;2022-12-05T11:36:45;67.60;;;7.50;;
5955;SDS011;3004;48.080;11.600;2022-12-05T11:39:21;68.00;;;7.50;;
5955;SDS011;3004;48.080;11.600;2022-12-05T11:41:56;67.90;;;7.23;;
5955;SDS011;3004;48.080;11.600;2022-12-05T11:44:42;68.17;;;7.17;;
5955;SDS011;3004;48.080;11.600;2022-12-05T11:47:21;68.10;;;7.30;;
5955;SDS011;3004;48.080;11.600;2022-12-05T11:50:35;68.10;;;7.70;;
5955;SDS011;3004;48.080;11.600;2022-12-05T11:53:34;67.73;;;7.20;;
5955;SDS011;3004;48.080;11.600;2022-12-05T11:56:24;69.97;;;9.77;;
5955;SDS011;3004;48.080;11.600;2022-12-05T11:59:23;67.67;;;7.13;;
5955;SDS011;3004;48.080;11.600;2022-12-05T12:02:17;68.17;;;7.30;;
5955;SDS011;3004;48.080;11.600;2022-12-05T12:04:56;67.97;;;7.13;;
5955;SDS011;3004;48.080;11.600;2022-12-05T12:07:51;68.50;;;7.63;;
5955;SDS011;3004;48.080;11.600;2022-12-05T12:14:05;67.77;;;6.77;;
5955;SDS011;3004;48.080;11.600;2022-12-05T12:16:51;68.27;;;7.90;;
5955;SDS011;3004;48.080;11.600;2022-12-05T12:19:35;67.10;;;6.60;;
5955;SDS011;3004;48.080;11.600;2022-12-05T12:25:39;67.87;;;7.43;;
5955;SDS011;3004;48.080;11.600;2022-12-05T12:28:18;68.10;;;7.40;;
5955;SDS011;3004;48.080;11.600;2022-12-05T12:31:01;67.87;;;7.00;;
5955;SDS011;3004;48.080;11.600;2022-12-05T12:33:48;67.57;;;6.90;;
5955;SDS011;3004;48.080;11.600;2022-12-05T12:36:22;68.10;;;6.87;;
5955;SDS011;3004;48.080;11.600;2022-12-05T12:39:10;67.17;;;6.73;;
5955;SDS011;3004;48.080;11.600;2022-12-05T12:41:54;67.20;;;6.47;;
5955;SDS011;3004;48.080;11.600;2022-12-05T12:44:51;67.70;;;7.07;;
5955;SDS011;3004;48.080;11.600;2022-12-05T12:47:31;67.30;;;6.33;;
5955;SDS011;3004;48.080;11.600;2022-12-05T12:50:11;67.20;;;6.60;;
5955;SDS011;3004;48.080;11.600;2022-12-05T12:52:54;68.60;;;8.60;;
5955;SDS011;3004;48.080;11.600;2022-12-05T12:55:47;67.37;;;6.20;;
5955;SDS011;3004;48.080;11.600;2022-12-05T12:58:28;67.33;;;6.27;;
5955;SDS011;3004;48.080;11.600;2022-12-05T13:01:24;66.80;;;6.47;;
5955;SDS011;3004;48.080;11.600;2022-12-05T13:04:06;67.47;;;7.17;;
5955;SDS011;3004;48.080;11.600;2022-12-05T13:06:42;66.47;;;5.80;;
5955;SDS011;3004;48.080;11.600;2022-12-05T13:09:27;66.50;;;5.73;;
5955;SDS011;3004;48.080;11.600;2022-12-05T13:11:59;66.70;;;5.90;;
5955;SDS011;3004;48.080;11.600;2022-12-05T13:14:34;67.23;;;6.30;;
5955;SDS011;3004;48.080;11.600;2022-12-05T13:17:10;66.80;;;5.73;;
5955;SDS011;3004;48.080;11.600;2022-12-05T13:19:54;66.80;;;5.60;;
5955;SDS011;3004;48.080;11.600;2022-12-05T13:22:24;66.97;;;5.80;;
5955;SDS011;3004;48.080;11.600;2022-12-05T13:24:53;67.37;;;6.20;;
5955;SDS011;3004;48.080;11.600;2022-12-05T13:27:28;68.00;;;7.37;;
5955;SDS011;3004;48.080;11.600;2022-12-05T13:29:59;66.50;;;5.60;;
5955;SDS011;3004;48.080;11.600;2022-12-05T13:32:32;66.67;;;5.63;;
5955;SDS011;3004;48.080;11.600;2022-12-05T13:35:14;66.93;;;5.70;;
5955;SDS011;3004;48.080;11.600;2022-12-05T13:38:03;66.77;;;5.73;;
5955;SDS011;3004;48.080;11.600;2022-12-05T13:40:56;66.70;;;5.80;;
5955;SDS011;3004;48.080;11.600;2022-12-05T13:43:49;67.27;;;6.10;;
5955;SDS011;3004;48.080;11.600;2022-12-05T13:46:21;67.43;;;5.97;;
5955;SDS011;3004;48.080;11.600;2022-12-05T13:49:02;66.50;;;5.80;;
5955;SDS011;3004;48.080;11.600;2022-12-05T13:51:44;66.27;;;5.30;;
5955;SDS011;3004;48.080;11.600;2022-12-05T13:54:22;66.20;;;5.07;;
5955;SDS011;3004;48.080;11.600;2022-12-05T13:56:51;65.67;;;4.63;;
5955;SDS011;3004;48.080;11.600;2022-12-05T14:02:46;65.50;;;4.53;;
5955;SDS011;3004;48.080;11.600;2022-12-05T14:05:44;66.00;;;4.60;;
5955;SDS011;3004;48.080;11.600;2022-12-05T14:11:19;66.03;;;4.93;;
5955;SDS011;3004;48.080;11.600;2022-12-05T14:13:48;67.30;;;5.30;;
5955;SDS011;3004;48.080;11.600;2022-12-05T14:22:31;65.97;;;4.90;;
5955;SDS011;3004;48.080;11.600;2022-12-05T14:25:46;65.87;;;4.97;;
5955;SDS011;3004;48.080;11.600;2022-12-05T14:28:30;66.17;;;5.00;;
5955;SDS011;3004;48.080;11.600;2022-12-05T14:31:26;66.20;;;5.03;;
5955;SDS011;3004;48.080;11.600;2022-12-05T14:34:17;66.33;;;5.27;;
5955;SDS011;3004;48.080;11.600;2022-12-05T14:37:01;66.33;;;5.40;;
5955;SDS011;3004;48.080;11.600;2022-12-05T14:39:40;66.40;;;5.33;;
5955;SDS011;3004;48.080;11.600;2022-12-05T14:42:21;66.53;;;5.30;;
5955;SDS011;3004;48.080;11.600;2022-12-05T14:44:54;66.53;;;5.60;;
5955;SDS011;3004;48.080;11.600;2022-12-05T14:47:28;66.63;;;5.50;;
5955;SDS011;3004;48.080;11.600;2022-12-05T14:56:01;66.50;;;5.53;;
5955;SDS011;3004;48.080;11.600;2022-12-05T14:58:42;66.87;;;5.73;;
5955;SDS011;3004;48.080;11.600;2022-12-05T15:01:21;66.40;;;5.73;;
5955;SDS011;3004;48.080;11.600;2022-12-05T15:04:04;67.17;;;5.90;;
5955;SDS011;3004;48.080;11.600;2022-12-05T15:06:46;66.97;;;6.13;;
5955;SDS011;3004;48.080;11.600;2022-12-05T15:09:30;66.60;;;6.10;;
5955;SDS011;3004;48.080;11.600;2022-12-05T15:12:21;67.07;;;6.00;;
5955;SDS011;3004;48.080;11.600;2022-12-05T15:14:58;66.87;;;6.17;;
5955;SDS011;3004;48.080;11.600;2022-12-05T15:17:36;68.87;;;7.33;;
5955;SDS011;3004;48.080;11.600;2022-12-05T15:20:29;67.70;;;6.70;;
5955;SDS011;3004;48.080;11.600;2022-12-05T15:26:24;68.23;;;7.60;;
5955;SDS011;3004;48.080;11.600;2022-12-05T15:29:10;67.33;;;6.50;;
5955;SDS011;3004;48.080;11.600;2022-12-05T15:34:36;67.20;;;6.47;;
5955;SDS011;3004;48.080;11.600;2022-12-05T15:37:36;67.10;;;6.57;;
5955;SDS011;3004;48.080;11.600;2022-12-05T15:40:31;67.23;;;6.63;;
5955;SDS011;3004;48.080;11.600;2022-12-05T15:43:25;67.47;;;6.67;;
5955;SDS011;3004;48.080;11.600;2022-12-05T15:48:55;67.63;;;6.80;;
5955;SDS011;3004;48.080;11.600;2022-12-05T15:51:51;67.77;;;6.80;;
5955;SDS011;3004;48.080;11.600;2022-12-05T15:57:45;67.37;;;6.90;;
5955;SDS011;3004;48.080;11.600;2022-12-05T16:00:49;67.40;;;7.10;;
5955;SDS011;3004;48.080;11.600;2022-12-05T16:03:23;67.47;;;7.10;;
5955;SDS011;3004;48.080;11.600;2022-12-05T16:08:55;67.63;;;7.00;;
5955;SDS011;3004;48.080;11.600;2022-12-05T16:11:25;67.83;;;7.60;;
5955;SDS011;3004;48.080;11.600;2022-12-05T16:13:55;67.40;;;7.13;;
5955;SDS011;3004;48.080;11.600;2022-12-05T16:19:28;67.93;;;7.23;;
5955;SDS011;3004;48.080;11.600;2022-12-05T16:25:11;67.60;;;7.07;;
5955;SDS011;3004;48.080;11.600;2022-12-05T16:28:01;67.67;;;7.20;;
5955;SDS011;3004;48.080;11.600;2022-12-05T16:30:53;67.60;;;7.37;;
5955;SDS011;3004;48.080;11.600;2022-12-05T16:33:22;67.67;;;7.03;;
5955;SDS011;3004;48.080;11.600;2022-12-05T16:36:06;67.53;;;7.03;;
5955;SDS011;3004;48.080;11.600;2022-12-05T16:38:42;67.70;;;7.10;;
5955;SDS011;3004;48.080;11.600;2022-12-05T16:41:14;67.67;;;7.13;;
5955;SDS011;3004;48.080;11.600;2022-12-05T16:43:49;67.60;;;7.23;;